Time;durP1;ratioP1;P1;durP2;ratioP2;P2;SDS_P1;SDS_P2;PMS_P1;PMS_P2;Temp;Humidity;BMP_temperature;BMP_pressure;BME280_temperature;BME280_humidity;BME280_pressure;Samples;Min_cycle;Max_cycle;Signal;HPM_P1;HPM_P2
2023/06/29 00:02:24;;;;;;;10.40;8.60;;;14.00;1.00;;;;;;5014408;28;20276;-90
2023/06/29 00:04:53;;;;;;;16.27;9.20;;;14.00;1.00;;;;;;5019196;28;20198;-90
2023/06/29 00:07:20;;;;;;;10.43;8.70;;;14.00;1.00;;;;;;5034002;28;20255;-90
2023/06/29 00:09:47;;;;;;;12.77;8.60;;;14.00;1.00;;;;;;5027789;28;20194;-90
2023/06/29 00:12:14;;;;;;;10.90;8.70;;;14.00;1.00;;;;;;5013895;28;20656;-90
2023/06/29 00:14:41;;;;;;;13.70;9.70;;;14.00;54.20;;;;;;5030912;28;20201;-90
2023/06/29 00:17:14;;;;;;;15.13;10.27;;;14.00;99.90;;;;;;5036894;28;20198;-90
2023/06/29 00:19:42;;;;;;;14.80;10.57;;;14.00;99.90;;;;;;5037413;28;20287;-90
2023/06/29 00:22:10;;;;;;;18.73;10.47;;;14.00;1.00;;;;;;5037246;28;20225;-91
2023/06/29 00:24:42;;;;;;;15.83;10.50;;;14.10;1.00;;;;;;5037474;28;20209;-91
2023/06/29 00:27:09;;;;;;;14.70;10.57;;;14.10;1.00;;;;;;5037152;28;20250;-91
2023/06/29 00:29:36;;;;;;;16.77;10.83;;;14.10;1.00;;;;;;5037020;28;20578;-91
2023/06/29 00:32:03;;;;;;;13.50;10.23;;;14.10;1.00;;;;;;5037231;28;20649;-91
2023/06/29 00:34:32;;;;;;;16.20;11.10;;;14.20;67.60;;;;;;5034860;28;20194;-90
2023/06/29 00:36:59;;;;;;;16.43;10.13;;;14.20;99.90;;;;;;5017265;28;20190;-90
2023/06/29 00:39:26;;;;;;;16.57;10.17;;;14.20;95.90;;;;;;5017367;28;20206;-91
2023/06/29 00:41:54;;;;;;;13.70;10.27;;;14.20;99.90;;;;;;5016726;28;20251;-92
2023/06/29 00:44:21;;;;;;;13.67;10.70;;;14.20;99.90;;;;;;5016958;28;20205;-91
2023/06/29 00:46:49;;;;;;;15.88;10.38;;;14.20;99.90;;;;;;5017218;28;20233;-88
2023/06/29 00:49:16;;;;;;;18.47;10.70;;;14.20;99.90;;;;;;5016879;28;20225;-91
2023/06/29 00:51:48;;;;;;;15.90;10.83;;;14.20;99.90;;;;;;5016765;28;20199;-90
2023/06/29 00:54:15;;;;;;;18.43;11.00;;;14.20;99.90;;;;;;5016734;28;20230;-91
2023/06/29 00:56:43;;;;;;;14.90;10.37;;;14.20;99.90;;;;;;5016564;28;20201;-91
2023/06/29 00:59:10;;;;;;;15.27;11.00;;;14.20;99.90;;;;;;5016633;28;20202;-91
2023/06/29 01:01:39;;;;;;;13.10;10.70;;;14.10;99.90;;;;;;5016470;28;20316;-91
2023/06/29 01:04:06;;;;;;;16.10;9.97;;;14.10;99.90;;;;;;5002892;28;20658;-92
2023/06/29 01:06:40;;;;;;;13.07;9.90;;;14.10;99.90;;;;;;5036523;28;20209;-91
2023/06/29 01:09:09;;;;;;;14.03;10.30;;;14.10;99.90;;;;;;4996973;28;20187;-91
2023/06/29 01:11:38;;;;;;;18.63;9.90;;;14.00;99.90;;;;;;4997147;28;20201;-91
2023/06/29 01:14:07;;;;;;;16.40;10.07;;;14.00;99.90;;;;;;5032887;28;20666;-91
2023/06/29 01:16:35;;;;;;;14.07;9.70;;;14.00;99.90;;;;;;5036318;28;20740;-90
2023/06/29 01:19:05;;;;;;;13.43;9.20;;;14.00;99.90;;;;;;5029067;28;20228;-91
2023/06/29 01:21:36;;;;;;;13.77;9.00;;;14.00;99.90;;;;;;5036096;28;20221;-92
2023/06/29 01:24:04;;;;;;;12.80;9.60;;;14.00;99.90;;;;;;5034694;28;20660;-92
2023/06/29 01:26:33;;;;;;;14.97;9.20;;;14.00;99.90;;;;;;5016297;28;20211;-91
2023/06/29 01:28:59;;;;;;;13.07;9.27;;;13.90;99.90;;;;;;5015965;28;20256;-92
2023/06/29 01:31:27;;;;;;;11.50;8.70;;;13.90;99.90;;;;;;5019663;28;20266;-91
2023/06/29 01:33:54;;;;;;;12.47;9.03;;;13.90;99.90;;;;;;5035877;28;20203;-91
2023/06/29 01:36:28;;;;;;;15.20;10.03;;;13.80;92.80;;;;;;5035715;28;20224;-91
2023/06/29 01:39:01;;;;;;;15.27;9.73;;;13.80;99.90;;;;;;5035801;28;20191;-91
2023/06/29 01:41:36;;;;;;;15.03;9.90;;;13.80;99.90;;;;;;5035500;28;20212;-91
2023/06/29 01:44:06;;;;;;;19.10;10.33;;;13.80;99.90;;;;;;5035576;28;20181;-91
2023/06/29 01:46:34;;;;;;;18.13;10.90;;;13.70;99.90;;;;;;5035639;28;20235;-92
2023/06/29 01:49:01;;;;;;;14.40;9.83;;;13.70;99.90;;;;;;5035572;28;20237;-92
2023/06/29 01:51:28;;;;;;;14.57;10.07;;;13.80;99.90;;;;;;5029752;28;20248;-91
2023/06/29 01:53:55;;;;;;;18.17;9.97;;;13.70;99.90;;;;;;5015863;28;20257;-92
2023/06/29 01:56:22;;;;;;;16.70;10.67;;;13.70;99.90;;;;;;5015396;28;20229;-91
2023/06/29 01:58:50;;;;;;;23.07;10.80;;;13.70;99.90;;;;;;5015638;28;20250;-91
2023/06/29 02:01:17;;;;;;;18.83;10.33;;;13.70;99.90;;;;;;5015635;28;20263;-91
2023/06/29 02:03:44;;;;;;;15.03;10.60;;;13.70;99.90;;;;;;5015439;28;20256;-92
2023/06/29 02:06:11;;;;;;;17.17;10.93;;;13.60;99.90;;;;;;5018898;28;20201;-92
2023/06/29 02:08:39;;;;;;;16.10;11.50;;;13.70;99.90;;;;;;5015498;28;20250;-92
2023/06/29 02:11:05;;;;;;;20.13;11.73;;;13.60;99.90;;;;;;5015545;28;20308;-91
2023/06/29 02:13:32;;;;;;;27.43;13.83;;;13.70;99.90;;;;;;5015315;28;20197;-91
2023/06/29 02:16:01;;;;;;;20.80;12.90;;;13.70;99.90;;;;;;5020160;28;20197;-91
2023/06/29 02:18:28;;;;;;;21.50;12.33;;;13.60;99.90;;;;;;5032522;28;20677;-91
2023/06/29 02:20:55;;;;;;;18.47;13.30;;;13.70;99.90;;;;;;5015380;28;20275;-91
2023/06/29 02:23:22;;;;;;;22.07;13.53;;;13.70;99.90;;;;;;5014937;28;20200;-92
2023/06/29 02:25:49;;;;;;;24.80;13.50;;;13.70;99.90;;;;;;5015091;28;20199;-92
2023/06/29 02:28:16;;;;;;;19.83;12.10;;;13.60;99.90;;;;;;5016285;28;20259;-92
2023/06/29 02:30:43;;;;;;;18.97;12.30;;;13.60;99.90;;;;;;5035151;28;20258;-91
2023/06/29 02:33:11;;;;;;;17.50;12.87;;;13.60;99.90;;;;;;5035034;28;20292;-92
2023/06/29 02:35:38;;;;;;;18.57;13.03;;;13.60;99.90;;;;;;4995653;28;20202;-92
2023/06/29 02:38:05;;;;;;;16.30;12.40;;;13.60;99.90;;;;;;5010576;28;20678;-92
2023/06/29 02:40:32;;;;;;;15.83;12.50;;;13.60;1.00;;;;;;5015299;28;20197;-92
2023/06/29 02:42:59;;;;;;;21.80;12.10;;;13.60;1.00;;;;;;5015105;28;20214;-92
2023/06/29 02:45:25;;;;;;;21.33;11.77;;;13.60;1.00;;;;;;5014682;28;20273;-93
2023/06/29 02:47:52;;;;;;;16.37;11.57;;;13.60;1.00;;;;;;5028607;28;20322;-92
2023/06/29 02:50:21;;;;;;;16.27;10.80;;;13.60;1.00;;;;;;5054684;28;20204;-93
2023/06/29 02:52:48;;;;;;;17.50;11.23;;;13.70;1.00;;;;;;5054436;28;20203;-92
2023/06/29 02:55:15;;;;;;;20.00;11.67;;;13.70;1.00;;;;;;5054532;28;20204;-92
2023/06/29 02:57:42;;;;;;;14.83;10.37;;;13.70;1.00;;;;;;5054552;28;20244;-92
2023/06/29 03:00:10;;;;;;;15.70;10.43;;;13.70;1.00;;;;;;5054332;28;20203;-92
2023/06/29 03:02:37;;;;;;;18.80;10.03;;;13.70;1.00;;;;;;5014441;28;20219;-92
2023/06/29 03:05:04;;;;;;;17.00;11.33;;;13.80;1.00;;;;;;5014755;28;20287;-92
2023/06/29 03:07:33;;;;;;;14.17;9.47;;;13.80;1.00;;;;;;5014669;28;20196;-92
2023/06/29 03:10:00;;;;;;;12.50;8.57;;;13.80;1.00;;;;;;5014751;28;20197;-93
2023/06/29 03:12:27;;;;;;;11.47;8.13;;;13.90;1.00;;;;;;5032867;28;20242;-93
2023/06/29 03:14:54;;;;;;;11.77;7.40;;;13.90;1.00;;;;;;5033952;28;20197;-93
2023/06/29 03:17:21;;;;;;;12.93;7.30;;;14.00;1.00;;;;;;5034122;28;20201;-92
2023/06/29 03:19:48;;;;;;;10.93;7.50;;;14.00;1.00;;;;;;5034265;28;20227;-92
2023/06/29 03:22:14;;;;;;;9.73;6.97;;;14.10;1.00;;;;;;5033969;28;20276;-91
2023/06/29 03:24:43;;;;;;;11.37;6.63;;;14.20;1.00;;;;;;5034038;28;20194;-92
2023/06/29 03:27:11;;;;;;;12.03;7.10;;;14.20;99.90;;;;;;5034466;28;20251;-93
2023/06/29 03:29:38;;;;;;;12.03;6.93;;;14.30;99.90;;;;;;5034028;28;20199;-92
2023/06/29 03:32:05;;;;;;;13.53;7.10;;;14.30;99.90;;;;;;5033948;28;20367;-93
2023/06/29 03:34:32;;;;;;;8.50;5.83;;;14.40;99.90;;;;;;5033942;28;20205;-91
2023/06/29 03:36:59;;;;;;;9.90;6.37;;;14.40;99.90;;;;;;5033760;28;20222;-92
2023/06/29 03:39:26;;;;;;;7.90;6.30;;;14.50;99.90;;;;;;5034223;28;20201;-92
2023/06/29 03:41:54;;;;;;;10.33;6.07;;;14.50;99.90;;;;;;5033609;28;20268;-92
2023/06/29 03:44:21;;;;;;;16.50;6.47;;;14.60;24.80;;;;;;5033661;28;20257;-93
2023/06/29 03:46:49;;;;;;;8.35;5.80;;;14.60;1.00;;;;;;5033874;28;20255;-92
2023/06/29 03:49:16;;;;;;;9.80;5.70;;;14.60;1.00;;;;;;5014252;28;20194;-92
2023/06/29 03:51:43;;;;;;;8.43;5.10;;;14.70;1.00;;;;;;5025369;28;20214;-92
2023/06/29 03:54:10;;;;;;;9.05;5.70;;;14.70;1.00;;;;;;5018212;28;20222;-93
2023/06/29 03:56:37;;;;;;;7.85;5.10;;;14.80;1.00;;;;;;5016461;28;20197;-92
2023/06/29 03:59:05;;;;;;;8.18;4.88;;;14.90;1.00;;;;;;5017682;28;20662;-91
2023/06/29 04:01:32;;;;;;;10.38;5.28;;;15.10;99.90;;;;;;5026810;28;20200;-93
2023/06/29 04:03:59;;;;;;;6.18;4.93;;;15.90;99.90;;;;;;5037798;28;20200;-93
2023/06/29 04:06:26;;;;;;;10.25;4.80;;;16.90;1.00;;;;;;5029007;28;20198;-93
2023/06/29 04:08:53;;;;;;;6.93;4.00;;;17.90;1.00;;;;;;5011295;28;20226;-92
2023/06/29 04:11:19;;;;;;;4.60;3.45;;;18.60;1.00;;;;;;5017778;28;20194;-92
2023/06/29 04:13:46;;;;;;;6.63;3.47;;;19.20;1.00;;;;;;5017567;28;20244;-93
2023/06/29 04:16:15;;;;;;;5.40;3.50;;;19.70;1.00;;;;;;5024727;28;20198;-93
2023/06/29 04:18:42;;;;;;;6.80;3.40;;;20.00;12.70;;;;;;5016931;28;20232;-94
2023/06/29 04:21:09;;;;;;;4.78;3.00;;;20.30;1.00;;;;;;5017060;28;20198;-90
2023/06/29 04:23:36;;;;;;;7.47;3.55;;;20.60;99.90;;;;;;5016176;28;20214;-92
2023/06/29 04:26:03;;;;;;;7.47;3.80;;;20.80;1.00;;;;;;5016579;28;20257;-92
2023/06/29 04:28:30;;;;;;;5.60;3.22;;;21.00;1.00;;;;;;5016588;28;20198;-92
2023/06/29 04:30:57;;;;;;;6.47;3.10;;;21.30;1.00;;;;;;5016830;28;20190;-93
2023/06/29 04:33:25;;;;;;;6.30;3.45;;;21.70;99.90;;;;;;5016612;28;20198;-92
2023/06/29 04:35:53;;;;;;;9.07;3.20;;;22.10;14.70;;;;;;5020420;28;20212;-92
2023/06/29 04:38:27;;;;;;;5.90;3.10;;;22.40;1.00;;;;;;5018457;28;20195;-92
2023/06/29 04:41:03;;;;;;;5.68;4.03;;;22.50;1.00;;;;;;5023258;28;20628;-92
2023/06/29 04:43:30;;;;;;;5.10;3.22;;;22.60;99.90;;;;;;5026325;28;20218;-92
2023/06/29 04:45:59;;;;;;;5.32;3.17;;;22.60;99.90;;;;;;5021873;28;20743;-93
2023/06/29 04:48:32;;;;;;;5.82;3.10;;;22.70;99.90;;;;;;5029581;28;20673;-93
2023/06/29 04:51:05;;;;;;;6.53;3.05;;;23.00;99.90;;;;;;5037078;28;20613;-92
2023/06/29 04:53:32;;;;;;;3.60;2.92;;;23.20;93.60;;;;;;5036702;28;20192;-93
2023/06/29 04:55:59;;;;;;;5.25;2.78;;;23.40;43.00;;;;;;5036592;28;20200;-92
2023/06/29 04:58:26;;;;;;;4.40;3.10;;;23.50;1.00;;;;;;5036496;28;20285;-92
2023/06/29 05:00:55;;;;;;;4.50;2.90;;;23.50;1.00;;;;;;5036694;28;20205;-93
2023/06/29 05:03:22;;;;;;;6.22;3.00;;;23.60;1.00;;;;;;5035951;28;20250;-92
2023/06/29 05:05:50;;;;;;;3.97;2.80;;;23.60;1.00;;;;;;5036409;28;20263;-93
2023/06/29 05:08:17;;;;;;;5.05;3.05;;;23.70;1.00;;;;;;5036426;28;20248;-93
2023/06/29 05:10:44;;;;;;;6.30;3.30;;;23.50;1.00;;;;;;5036233;28;20648;-92
2023/06/29 05:13:11;;;;;;;5.90;3.10;;;23.10;1.00;;;;;;5041987;28;20189;-92
2023/06/29 05:15:38;;;;;;;6.43;3.15;;;22.80;1.00;;;;;;5049976;28;20629;-91
2023/06/29 05:18:05;;;;;;;13.30;3.60;;;22.40;1.00;;;;;;5035883;28;20733;-94
2023/06/29 05:20:32;;;;;;;4.90;3.30;;;22.00;1.00;;;;;;5036371;28;20280;-91
2023/06/29 05:23:01;;;;;;;6.45;3.28;;;21.50;1.00;;;;;;5034909;28;20209;-89
2023/06/29 05:25:28;;;;;;;6.35;3.60;;;21.00;12.40;;;;;;5035187;28;20233;-90
2023/06/29 05:27:55;;;;;;;4.90;3.35;;;20.70;93.50;;;;;;5035065;28;20189;-91
2023/06/29 05:30:22;;;;;;;4.60;3.40;;;20.40;99.90;;;;;;5035497;28;20194;-90
2023/06/29 05:32:49;;;;;;;5.90;3.58;;;20.30;99.90;;;;;;5035131;28;20267;-89
2023/06/29 05:35:16;;;;;;;4.82;3.53;;;20.10;99.90;;;;;;5034820;28;20339;-90
2023/06/29 05:37:43;;;;;;;4.28;3.30;;;20.00;99.90;;;;;;5034880;28;20194;-89
2023/06/29 05:40:12;;;;;;;5.50;3.53;;;19.80;1.00;;;;;;5034927;28;20252;-90
2023/06/29 05:42:39;;;;;;;4.88;3.72;;;19.70;1.00;;;;;;5019059;28;20241;-90
2023/06/29 05:45:07;;;;;;;7.32;4.00;;;19.60;1.00;;;;;;5035120;28;20201;-89
2023/06/29 05:47:34;;;;;;;6.32;4.13;;;19.60;99.90;;;;;;5034236;28;20214;-90
2023/06/29 05:50:01;;;;;;;8.98;5.00;;;19.60;99.90;;;;;;5024087;28;20609;-90
2023/06/29 05:52:28;;;;;;;30.75;15.75;;;19.60;93.70;;;;;;5021202;28;20639;-89
2023/06/29 05:54:55;;;;;;;16.42;9.20;;;19.50;99.90;;;;;;5030332;28;20325;-90
2023/06/29 05:57:23;;;;;;;24.73;14.48;;;19.50;99.90;;;;;;5017024;28;20198;-89
2023/06/29 05:59:51;;;;;;;53.85;30.35;;;19.50;99.90;;;;;;5019233;28;20194;-89
2023/06/29 06:02:18;;;;;;;28.95;15.82;;;19.60;99.90;;;;;;5019025;28;20221;-90
2023/06/29 06:04:45;;;;;;;72.55;31.65;;;19.60;99.90;;;;;;5019160;28;20230;-90
2023/06/29 06:07:16;;;;;;;39.40;17.98;;;19.70;99.90;;;;;;5018748;28;20194;-90
2023/06/29 06:09:43;;;;;;;21.55;10.57;;;19.70;99.90;;;;;;4999560;28;20202;-90
2023/06/29 06:12:10;;;;;;;41.08;17.90;;;19.80;99.90;;;;;;5018927;28;20191;-90
2023/06/29 06:14:38;;;;;;;31.83;14.75;;;19.90;99.90;;;;;;5017871;28;20226;-89
2023/06/29 06:17:05;;;;;;;27.02;13.48;;;19.90;99.90;;;;;;5018386;28;20190;-89
2023/06/29 06:19:32;;;;;;;56.70;26.02;;;20.00;99.90;;;;;;5018837;28;20725;-89
2023/06/29 06:21:59;;;;;;;47.72;21.42;;;20.00;99.90;;;;;;5016537;28;20194;-89
2023/06/29 06:24:26;;;;;;;35.72;16.95;;;20.10;99.90;;;;;;5016126;28;20195;-89
2023/06/29 06:26:53;;;;;;;57.88;27.48;;;20.20;99.90;;;;;;5018992;28;20252;-90
2023/06/29 06:29:20;;;;;;;26.38;13.35;;;20.30;99.90;;;;;;5018544;28;20194;-90
2023/06/29 06:31:48;;;;;;;24.17;12.38;;;20.40;99.90;;;;;;5018277;28;20194;-89
2023/06/29 06:34:15;;;;;;;54.88;24.90;;;20.60;1.00;;;;;;5014365;28;20190;-90
2023/06/29 06:36:42;;;;;;;13.45;6.63;;;20.70;1.00;;;;;;5029750;28;20220;-90
2023/06/29 06:39:09;;;;;;;24.77;12.52;;;20.70;1.00;;;;;;4995239;28;20553;-90
2023/06/29 06:41:36;;;;;;;7.50;3.38;;;20.80;1.00;;;;;;5018340;28;20194;-90
2023/06/29 06:44:04;;;;;;;17.23;5.38;;;20.90;1.00;;;;;;5018187;28;20206;-90
2023/06/29 06:46:31;;;;;;;7.13;3.78;;;20.90;1.00;;;;;;5018060;28;20189;-90
2023/06/29 06:49:00;;;;;;;12.43;6.15;;;21.00;99.90;;;;;;5031708;28;20308;-90
2023/06/29 06:51:27;;;;;;;35.00;15.95;;;21.10;99.90;;;;;;5033889;28;20202;-90
2023/06/29 06:53:55;;;;;;;8.70;4.72;;;21.30;99.90;;;;;;5034038;28;20196;-92
2023/06/29 06:56:22;;;;;;;10.05;4.47;;;21.40;99.90;;;;;;5033813;28;20198;-91
2023/06/29 06:58:50;;;;;;;22.27;10.65;;;21.40;99.90;;;;;;5033589;28;20221;-91
2023/06/29 07:01:17;;;;;;;9.73;4.55;;;21.50;99.90;;;;;;5033714;28;20197;-90
2023/06/29 07:03:44;;;;;;;12.13;5.68;;;21.50;35.30;;;;;;5033743;28;20229;-91
2023/06/29 07:06:13;;;;;;;10.57;3.42;;;21.60;1.00;;;;;;5034184;28;20185;-91
2023/06/29 07:08:39;;;;;;;4.32;1.88;;;21.70;1.00;;;;;;5033657;28;20194;-91
2023/06/29 07:11:07;;;;;;;11.25;5.38;;;21.70;1.00;;;;;;5033538;28;20251;-90
2023/06/29 07:13:34;;;;;;;11.90;5.88;;;21.80;1.00;;;;;;5033312;28;20209;-90
2023/06/29 07:16:01;;;;;;;16.85;8.70;;;21.90;1.00;;;;;;5033618;28;20325;-91
2023/06/29 07:18:28;;;;;;;7.00;3.95;;;21.90;1.00;;;;;;5033296;28;20194;-91
2023/06/29 07:20:55;;;;;;;9.05;4.70;;;22.00;1.00;;;;;;5033896;28;20247;-91
2023/06/29 07:23:23;;;;;;;6.18;2.92;;;22.10;1.00;;;;;;5033165;28;20583;-90
2023/06/29 07:25:50;;;;;;;10.68;4.72;;;22.10;1.00;;;;;;5036034;28;20190;-91
2023/06/29 07:28:17;;;;;;;11.60;6.55;;;22.20;1.00;;;;;;5037239;28;20204;-90
2023/06/29 07:30:44;;;;;;;7.72;4.15;;;22.20;1.00;;;;;;5037480;28;20247;-90
2023/06/29 07:33:11;;;;;;;4.82;2.80;;;22.20;1.00;;;;;;5037862;28;20190;-90
2023/06/29 07:35:38;;;;;;;6.68;3.75;;;22.10;1.00;;;;;;5037368;28;20248;-91
2023/06/29 07:38:05;;;;;;;7.00;3.92;;;22.20;1.00;;;;;;5037144;28;20201;-91
2023/06/29 07:40:34;;;;;;;4.47;2.53;;;22.40;1.00;;;;;;5037125;28;20224;-91
2023/06/29 07:43:01;;;;;;;7.53;4.03;;;22.40;1.00;;;;;;5036870;28;20636;-90
2023/06/29 07:45:28;;;;;;;4.03;2.67;;;22.50;1.00;;;;;;5037362;28;20185;-91
2023/06/29 07:47:55;;;;;;;7.57;4.40;;;22.50;1.00;;;;;;5037192;28;20221;-92
2023/06/29 07:50:22;;;;;;;5.72;4.05;;;22.60;1.00;;;;;;5023371;28;20731;-90
2023/06/29 07:52:50;;;;;;;6.82;3.60;;;22.60;1.00;;;;;;5021942;28;20268;-91
2023/06/29 07:55:17;;;;;;;6.45;3.40;;;22.50;1.00;;;;;;5032924;28;20220;-90
2023/06/29 07:57:46;;;;;;;5.57;2.80;;;22.60;1.00;;;;;;5032730;28;20194;-91
2023/06/29 08:00:14;;;;;;;4.93;3.38;;;22.60;1.00;;;;;;5021234;28;20202;-91
2023/06/29 08:02:42;;;;;;;6.82;2.53;;;22.70;1.00;;;;;;5021231;28;20285;-91
2023/06/29 08:05:09;;;;;;;7.72;3.97;;;22.80;1.00;;;;;;5017046;28;20244;-91
2023/06/29 08:07:36;;;;;;;5.97;2.97;;;22.90;1.00;;;;;;5021356;28;20212;-91
2023/06/29 08:10:03;;;;;;;4.13;2.75;;;23.00;1.00;;;;;;5019564;28;20726;-90
2023/06/29 08:12:30;;;;;;;4.97;2.70;;;23.00;1.00;;;;;;5017932;28;20195;-90
2023/06/29 08:14:59;;;;;;;5.05;2.55;;;23.00;1.00;;;;;;5021634;28;20190;-90
2023/06/29 08:17:26;;;;;;;5.80;2.70;;;23.00;1.00;;;;;;5021096;28;20791;-89
2023/06/29 08:19:52;;;;;;;6.57;1.88;;;23.10;99.90;;;;;;5020930;28;20194;-91
2023/06/29 08:22:19;;;;;;;4.47;2.33;;;23.20;99.90;;;;;;5020581;28;20619;-89
2023/06/29 08:24:46;;;;;;;4.93;2.53;;;23.20;99.90;;;;;;5016792;28;20264;-90
2023/06/29 08:27:13;;;;;;;3.53;2.00;;;23.20;99.90;;;;;;5020302;28;20194;-90
2023/06/29 08:29:40;;;;;;;5.28;2.45;;;23.20;99.90;;;;;;5020869;28;20198;-90
2023/06/29 08:32:09;;;;;;;4.88;3.58;;;23.30;99.90;;;;;;5020550;28;20198;-90
2023/06/29 08:34:36;;;;;;;4.18;2.40;;;23.50;99.90;;;;;;5020598;28;20252;-90
2023/06/29 08:37:03;;;;;;;2.95;2.05;;;23.80;99.90;;;;;;5018179;28;20190;-91
2023/06/29 08:39:31;;;;;;;5.40;2.30;;;24.20;99.90;;;;;;5017896;28;20566;-90
2023/06/29 08:41:58;;;;;;;2.85;2.05;;;24.50;99.90;;;;;;5020682;28;20249;-90
2023/06/29 08:44:25;;;;;;;3.53;2.13;;;24.60;99.90;;;;;;5020155;28;20704;-89
2023/06/29 08:46:53;;;;;;;3.63;2.30;;;24.60;99.90;;;;;;5020605;28;20744;-90
2023/06/29 08:49:23;;;;;;;3.50;2.20;;;24.60;99.90;;;;;;5030888;28;20616;-89
2023/06/29 08:51:53;;;;;;;3.50;2.50;;;24.70;99.90;;;;;;5016772;28;20277;-90
2023/06/29 08:54:20;;;;;;;3.08;2.00;;;24.60;99.90;;;;;;5018532;28;20277;-89
2023/06/29 08:56:48;;;;;;;3.58;2.13;;;24.50;99.90;;;;;;5019335;28;20202;-90
2023/06/29 08:59:16;;;;;;;3.65;2.20;;;24.40;99.90;;;;;;5020028;28;20280;-90
2023/06/29 09:01:43;;;;;;;4.00;2.00;;;24.50;99.90;;;;;;5019754;28;20197;-90
2023/06/29 09:04:11;;;;;;;7.40;2.25;;;24.80;99.90;;;;;;5031164;28;20303;-90
2023/06/29 09:06:41;;;;;;;8.57;2.88;;;25.20;99.90;;;;;;5016043;28;20590;-90
2023/06/29 09:09:09;;;;;;;6.28;2.03;;;25.40;99.90;;;;;;5020395;28;20190;-90
2023/06/29 09:11:37;;;;;;;2.78;1.65;;;25.60;99.90;;;;;;5019968;28;20665;-89
2023/06/29 09:14:07;;;;;;;5.95;1.90;;;25.80;99.90;;;;;;5019829;28;20186;-89
2023/06/29 09:16:35;;;;;;;5.68;2.20;;;25.80;99.90;;;;;;5019564;28;20664;-89
2023/06/29 09:19:04;;;;;;;7.28;2.20;;;25.70;99.90;;;;;;5017645;28;20253;-89
2023/06/29 09:21:31;;;;;;;4.47;1.95;;;25.70;99.90;;;;;;5016736;28;20611;-90
2023/06/29 09:24:00;;;;;;;3.45;2.17;;;25.80;99.90;;;;;;5019896;28;20268;-90
2023/06/29 09:26:28;;;;;;;5.35;2.05;;;26.10;99.90;;;;;;5019755;28;20195;-90
2023/06/29 09:28:59;;;;;;;5.75;2.00;;;26.40;99.90;;;;;;5019710;28;20273;-89
2023/06/29 09:31:28;;;;;;;4.80;1.90;;;26.60;99.90;;;;;;5019418;28;20193;-89
2023/06/29 09:33:55;;;;;;;3.45;1.65;;;26.50;99.90;;;;;;5016513;28;20643;-89
2023/06/29 09:36:27;;;;;;;4.53;1.80;;;26.30;99.90;;;;;;5017799;28;20610;-90
2023/06/29 09:38:55;;;;;;;3.72;2.00;;;26.00;99.90;;;;;;5019322;28;20190;-90
2023/06/29 09:41:24;;;;;;;3.83;2.28;;;25.70;99.90;;;;;;5023769;28;20244;-89
2023/06/29 09:43:54;;;;;;;6.05;1.80;;;25.50;99.90;;;;;;5025613;28;20276;-88
2023/06/29 09:46:21;;;;;;;3.25;1.92;;;25.40;99.90;;;;;;5019233;28;20224;-88
2023/06/29 09:48:49;;;;;;;2.65;1.88;;;25.40;99.90;;;;;;5030767;28;20226;-89
2023/06/29 09:51:23;;;;;;;4.32;1.88;;;25.40;99.90;;;;;;5034301;28;20190;-88
2023/06/29 09:53:50;;;;;;;3.50;1.77;;;25.50;99.90;;;;;;5034271;28;20193;-89
2023/06/29 09:56:17;;;;;;;5.78;2.15;;;25.40;99.90;;;;;;5034109;28;20565;-88
2023/06/29 09:58:46;;;;;;;3.80;1.75;;;25.20;99.90;;;;;;5034015;28;20205;-89
2023/06/29 10:01:15;;;;;;;8.07;2.60;;;25.00;99.90;;;;;;5034387;28;20280;-90
2023/06/29 10:03:42;;;;;;;3.92;2.10;;;25.00;99.90;;;;;;5034021;28;20232;-89
2023/06/29 10:06:13;;;;;;;2.92;1.85;;;25.40;99.90;;;;;;5034699;28;20618;-90
2023/06/29 10:08:43;;;;;;;3.38;1.60;;;26.00;99.90;;;;;;5034167;28;20197;-90
2023/06/29 10:11:10;;;;;;;3.22;1.98;;;26.70;99.90;;;;;;5034371;28;20247;-90
2023/06/29 10:13:42;;;;;;;2.60;1.55;;;27.20;99.90;;;;;;5034191;28;20641;-90
2023/06/29 10:16:13;;;;;;;4.13;1.98;;;27.50;99.90;;;;;;5034102;28;20193;-90
2023/06/29 10:18:47;;;;;;;3.35;1.80;;;27.60;99.90;;;;;;5034220;28;20204;-90
2023/06/29 10:21:14;;;;;;;4.53;1.83;;;27.70;99.90;;;;;;5034497;28;20244;-90
2023/06/29 10:23:44;;;;;;;2.72;1.60;;;27.80;99.90;;;;;;5033869;28;20267;-90
2023/06/29 10:26:11;;;;;;;4.30;2.03;;;28.00;99.90;;;;;;5033945;28;20198;-90
2023/06/29 10:28:39;;;;;;;3.45;2.00;;;28.20;99.90;;;;;;5033804;28;20213;-90
2023/06/29 10:31:05;;;;;;;2.63;1.88;;;28.30;99.90;;;;;;5033809;28;20270;-89
2023/06/29 10:33:46;;;;;;;3.08;1.83;;;28.30;99.90;;;;;;5033647;28;20236;-90
2023/06/29 10:36:14;;;;;;;6.90;2.33;;;28.30;99.90;;;;;;5030054;28;20221;-90
2023/06/29 10:38:41;;;;;;;3.53;1.77;;;28.40;99.90;;;;;;5031961;28;20280;-89
2023/06/29 10:41:08;;;;;;;2.50;1.73;;;28.30;99.90;;;;;;5033522;28;20193;-89
2023/06/29 10:43:56;;;;;;;3.00;1.55;;;28.30;99.90;;;;;;5033305;28;20194;-90
2023/06/29 10:46:41;;;;;;;4.80;1.73;;;28.20;99.90;;;;;;5033110;28;20196;-89
2023/06/29 10:49:21;;;;;;;3.67;1.95;;;27.90;99.90;;;;;;5033225;28;20313;-89
2023/06/29 10:51:50;;;;;;;5.00;2.22;;;27.70;99.90;;;;;;5018136;28;20200;-89
2023/06/29 10:54:17;;;;;;;3.50;1.98;;;27.40;99.90;;;;;;5033757;28;20277;-90
2023/06/29 10:56:57;;;;;;;3.15;1.85;;;27.40;99.90;;;;;;5033176;28;20190;-89
2023/06/29 10:59:24;;;;;;;11.30;3.50;;;27.40;99.90;;;;;;5032765;28;20292;-90
2023/06/29 11:01:52;;;;;;;6.00;2.50;;;27.50;99.90;;;;;;5033485;28;20221;-90
2023/06/29 11:04:20;;;;;;;3.92;2.22;;;27.50;99.90;;;;;;5033094;28;20209;-90
2023/06/29 11:06:47;;;;;;;3.30;2.05;;;27.50;99.90;;;;;;5032979;28;20190;-89
2023/06/29 11:09:14;;;;;;;4.55;2.30;;;27.50;99.90;;;;;;5033421;28;20241;-89
2023/06/29 11:11:42;;;;;;;4.75;2.15;;;27.40;99.90;;;;;;5033019;28;20227;-89
2023/06/29 11:14:11;;;;;;;3.47;1.95;;;27.40;99.90;;;;;;5032906;28;20316;-89
2023/06/29 11:16:39;;;;;;;2.10;1.80;;;27.30;99.90;;;;;;5032957;28;20201;-90
2023/06/29 11:19:06;;;;;;;4.45;2.25;;;27.10;99.90;;;;;;5032892;28;20730;-89
2023/06/29 11:21:34;;;;;;;3.95;1.98;;;26.90;99.90;;;;;;5032971;28;20194;-90
2023/06/29 11:24:01;;;;;;;4.78;2.10;;;27.10;99.90;;;;;;5033762;28;20268;-91
2023/06/29 11:26:29;;;;;;;4.13;1.92;;;27.40;99.90;;;;;;5033156;28;20193;-90
2023/06/29 11:28:56;;;;;;;9.02;4.72;;;28.00;99.90;;;;;;5034407;28;20244;-90
2023/06/29 11:31:25;;;;;;;4.32;2.47;;;28.40;99.90;;;;;;5034462;28;20605;-90
2023/06/29 11:33:53;;;;;;;3.30;2.00;;;28.50;99.90;;;;;;5033211;28;20247;-90
2023/06/29 11:36:30;;;;;;;4.93;2.10;;;28.30;99.90;;;;;;5033039;28;20204;-90
2023/06/29 11:39:09;;;;;;;3.22;1.70;;;28.10;99.90;;;;;;5031602;28;20193;-91
2023/06/29 11:41:37;;;;;;;2.38;1.55;;;28.20;99.90;;;;;;5033234;28;20196;-91
2023/06/29 11:44:04;;;;;;;4.10;1.90;;;28.20;99.90;;;;;;5033076;28;20304;-91
2023/06/29 11:46:34;;;;;;;2.75;1.70;;;28.30;99.90;;;;;;5033083;28;20193;-90
2023/06/29 11:49:03;;;;;;;4.03;1.90;;;28.40;99.90;;;;;;5032630;28;20228;-90
2023/06/29 11:51:31;;;;;;;4.85;2.08;;;28.50;99.90;;;;;;5033293;28;20621;-90
2023/06/29 11:53:59;;;;;;;2.95;2.00;;;28.60;99.90;;;;;;5031556;28;20672;-91
2023/06/29 11:56:28;;;;;;;3.13;1.63;;;28.60;99.90;;;;;;5033071;28;20267;-90
2023/06/29 11:58:55;;;;;;;3.88;1.83;;;28.60;99.90;;;;;;5032890;28;20204;-90
2023/06/29 12:01:23;;;;;;;3.17;2.00;;;28.70;99.90;;;;;;5033206;28;20256;-91
2023/06/29 12:03:50;;;;;;;4.53;2.00;;;28.70;99.00;;;;;;5032801;28;20276;-91
2023/06/29 12:06:17;;;;;;;3.33;1.88;;;28.60;98.30;;;;;;5033638;28;20198;-91
2023/06/29 12:08:45;;;;;;;3.95;2.10;;;28.60;99.50;;;;;;5033000;28;20198;-90
2023/06/29 12:11:16;;;;;;;3.65;2.05;;;28.90;99.90;;;;;;5033299;28;20190;-91
2023/06/29 12:13:49;;;;;;;2.67;2.00;;;29.30;99.90;;;;;;5036578;28;20224;-91
2023/06/29 12:16:17;;;;;;;5.78;2.35;;;29.50;99.90;;;;;;5036602;28;20189;-91
2023/06/29 12:18:44;;;;;;;4.55;1.80;;;29.60;97.90;;;;;;5036256;28;20212;-91
2023/06/29 12:21:11;;;;;;;2.65;1.70;;;29.30;94.80;;;;;;5036923;28;20225;-91
2023/06/29 12:23:38;;;;;;;2.47;1.65;;;29.20;94.90;;;;;;5036407;28;20745;-91
2023/06/29 12:26:05;;;;;;;2.92;2.38;;;29.20;93.20;;;;;;5036146;28;20392;-91
2023/06/29 12:28:33;;;;;;;3.83;2.03;;;29.30;93.90;;;;;;5036074;28;20350;-91
2023/06/29 12:31:03;;;;;;;5.75;2.00;;;29.50;94.10;;;;;;5036452;28;20280;-91
2023/06/29 12:33:30;;;;;;;2.80;2.00;;;29.80;92.20;;;;;;5036198;28;20576;-91
2023/06/29 12:35:58;;;;;;;3.30;2.05;;;30.10;91.90;;;;;;5034572;28;20260;-91
2023/06/29 12:38:25;;;;;;;4.53;1.70;;;30.50;92.40;;;;;;5036012;28;20229;-91
2023/06/29 12:40:52;;;;;;;2.47;1.90;;;30.80;91.60;;;;;;5036075;28;20252;-91
2023/06/29 12:43:18;;;;;;;4.30;1.88;;;31.00;90.10;;;;;;5036136;28;20189;-91
2023/06/29 12:45:46;;;;;;;3.13;2.10;;;31.00;85.10;;;;;;5036060;28;20645;-91
2023/06/29 12:48:14;;;;;;;3.53;2.08;;;30.70;77.70;;;;;;5031778;28;20291;-91